sensor_id;sensor_type;location;lat;lon;timestamp;P1;durP1;ratioP1;P2;durP2;ratioP2
20040;SDS011;10181;48.072;9.884;2022-07-05T00:00:44;3.63;;;3.37;;
20040;SDS011;10181;48.072;9.884;2022-07-05T00:03:10;2.87;;;2.67;;
20040;SDS011;10181;48.072;9.884;2022-07-05T00:05:36;3.47;;;3.17;;
20040;SDS011;10181;48.072;9.884;2022-07-05T00:08:02;3.20;;;2.90;;
20040;SDS011;10181;48.072;9.884;2022-07-05T00:10:29;3.33;;;3.13;;
20040;SDS011;10181;48.072;9.884;2022-07-05T00:12:55;4.87;;;3.43;;
20040;SDS011;10181;48.072;9.884;2022-07-05T00:15:21;2.90;;;2.80;;
20040;SDS011;10181;48.072;9.884;2022-07-05T00:17:47;2.90;;;2.70;;
20040;SDS011;10181;48.072;9.884;2022-07-05T00:20:13;3.53;;;3.33;;
20040;SDS011;10181;48.072;9.884;2022-07-05T00:22:39;3.63;;;3.33;;
20040;SDS011;10181;48.072;9.884;2022-07-05T00:25:05;2.97;;;2.77;;
20040;SDS011;10181;48.072;9.884;2022-07-05T00:27:31;2.97;;;2.77;;
20040;SDS011;10181;48.072;9.884;2022-07-05T00:29:57;3.23;;;3.03;;
20040;SDS011;10181;48.072;9.884;2022-07-05T00:32:22;3.33;;;3.13;;
20040;SDS011;10181;48.072;9.884;2022-07-05T00:34:48;3.10;;;2.90;;
20040;SDS011;10181;48.072;9.884;2022-07-05T00:37:14;2.60;;;2.47;;
20040;SDS011;10181;48.072;9.884;2022-07-05T00:39:39;2.60;;;2.40;;
20040;SDS011;10181;48.072;9.884;2022-07-05T00:42:05;3.23;;;3.03;;
20040;SDS011;10181;48.072;9.884;2022-07-05T00:44:32;2.33;;;2.23;;
20040;SDS011;10181;48.072;9.884;2022-07-05T00:47:00;2.23;;;2.13;;
20040;SDS011;10181;48.072;9.884;2022-07-05T00:49:27;2.67;;;2.07;;
20040;SDS011;10181;48.072;9.884;2022-07-05T00:51:54;2.83;;;2.63;;
20040;SDS011;10181;48.072;9.884;2022-07-05T00:54:20;2.60;;;2.50;;
20040;SDS011;10181;48.072;9.884;2022-07-05T00:56:46;2.77;;;2.67;;
20040;SDS011;10181;48.072;9.884;2022-07-05T00:59:12;2.93;;;2.73;;
20040;SDS011;10181;48.072;9.884;2022-07-05T01:01:38;3.13;;;2.93;;
20040;SDS011;10181;48.072;9.884;2022-07-05T01:04:04;2.77;;;2.67;;
20040;SDS011;10181;48.072;9.884;2022-07-05T01:06:29;3.03;;;2.83;;
20040;SDS011;10181;48.072;9.884;2022-07-05T01:08:55;2.83;;;2.63;;
20040;SDS011;10181;48.072;9.884;2022-07-05T01:11:21;3.17;;;2.97;;
20040;SDS011;10181;48.072;9.884;2022-07-05T01:13:47;2.63;;;2.43;;
20040;SDS011;10181;48.072;9.884;2022-07-05T01:16:13;2.67;;;2.57;;
20040;SDS011;10181;48.072;9.884;2022-07-05T01:18:38;3.43;;;2.40;;
20040;SDS011;10181;48.072;9.884;2022-07-05T01:21:04;3.17;;;2.97;;
20040;SDS011;10181;48.072;9.884;2022-07-05T01:23:31;3.00;;;2.70;;
20040;SDS011;10181;48.072;9.884;2022-07-05T01:26:01;2.83;;;2.67;;
20040;SDS011;10181;48.072;9.884;2022-07-05T01:28:27;3.07;;;2.80;;
20040;SDS011;10181;48.072;9.884;2022-07-05T01:30:53;3.47;;;3.27;;
20040;SDS011;10181;48.072;9.884;2022-07-05T01:33:19;5.63;;;2.80;;
20040;SDS011;10181;48.072;9.884;2022-07-05T01:35:55;2.57;;;2.47;;
20040;SDS011;10181;48.072;9.884;2022-07-05T01:38:21;2.70;;;2.60;;
20040;SDS011;10181;48.072;9.884;2022-07-05T01:40:47;2.70;;;2.50;;
20040;SDS011;10181;48.072;9.884;2022-07-05T01:43:16;2.80;;;2.60;;
20040;SDS011;10181;48.072;9.884;2022-07-05T01:45:46;3.30;;;3.10;;
20040;SDS011;10181;48.072;9.884;2022-07-05T01:48:13;2.80;;;2.60;;
20040;SDS011;10181;48.072;9.884;2022-07-05T01:53:20;3.97;;;3.67;;
20040;SDS011;10181;48.072;9.884;2022-07-05T01:55:48;3.30;;;3.07;;
20040;SDS011;10181;48.072;9.884;2022-07-05T01:58:14;3.47;;;2.60;;
20040;SDS011;10181;48.072;9.884;2022-07-05T02:03:14;3.33;;;3.13;;
20040;SDS011;10181;48.072;9.884;2022-07-05T02:05:41;3.30;;;3.10;;
20040;SDS011;10181;48.072;9.884;2022-07-05T02:08:08;5.13;;;3.40;;
20040;SDS011;10181;48.072;9.884;2022-07-05T02:10:35;3.47;;;3.27;;
20040;SDS011;10181;48.072;9.884;2022-07-05T02:13:02;3.97;;;3.77;;
20040;SDS011;10181;48.072;9.884;2022-07-05T02:15:32;3.50;;;3.30;;
20040;SDS011;10181;48.072;9.884;2022-07-05T02:18:00;3.10;;;2.90;;
20040;SDS011;10181;48.072;9.884;2022-07-05T02:20:27;3.10;;;2.80;;
20040;SDS011;10181;48.072;9.884;2022-07-05T02:22:53;2.50;;;2.40;;
20040;SDS011;10181;48.072;9.884;2022-07-05T02:25:19;2.53;;;2.43;;
20040;SDS011;10181;48.072;9.884;2022-07-05T02:27:44;1.67;;;1.67;;
20040;SDS011;10181;48.072;9.884;2022-07-05T02:30:11;3.20;;;2.17;;
20040;SDS011;10181;48.072;9.884;2022-07-05T02:32:37;2.43;;;2.23;;
20040;SDS011;10181;48.072;9.884;2022-07-05T02:35:03;2.00;;;1.90;;
20040;SDS011;10181;48.072;9.884;2022-07-05T02:37:30;2.03;;;1.93;;
20040;SDS011;10181;48.072;9.884;2022-07-05T02:39:55;4.40;;;2.23;;
20040;SDS011;10181;48.072;9.884;2022-07-05T02:42:21;1.97;;;1.87;;
20040;SDS011;10181;48.072;9.884;2022-07-05T02:44:46;2.30;;;2.20;;
20040;SDS011;10181;48.072;9.884;2022-07-05T02:47:12;2.23;;;2.13;;
20040;SDS011;10181;48.072;9.884;2022-07-05T02:49:38;1.80;;;1.70;;
20040;SDS011;10181;48.072;9.884;2022-07-05T02:52:04;2.10;;;2.00;;
20040;SDS011;10181;48.072;9.884;2022-07-05T02:54:30;1.80;;;1.70;;
20040;SDS011;10181;48.072;9.884;2022-07-05T02:56:55;1.70;;;1.70;;
20040;SDS011;10181;48.072;9.884;2022-07-05T02:59:21;2.57;;;2.37;;
20040;SDS011;10181;48.072;9.884;2022-07-05T03:01:46;2.10;;;2.00;;
20040;SDS011;10181;48.072;9.884;2022-07-05T03:04:12;2.77;;;2.57;;
20040;SDS011;10181;48.072;9.884;2022-07-05T03:06:38;3.07;;;2.77;;
20040;SDS011;10181;48.072;9.884;2022-07-05T03:09:03;3.57;;;3.27;;
20040;SDS011;10181;48.072;9.884;2022-07-05T03:11:29;3.57;;;3.37;;
20040;SDS011;10181;48.072;9.884;2022-07-05T03:13:55;3.80;;;3.57;;
20040;SDS011;10181;48.072;9.884;2022-07-05T03:16:21;3.30;;;3.10;;
20040;SDS011;10181;48.072;9.884;2022-07-05T03:18:48;2.97;;;2.77;;
20040;SDS011;10181;48.072;9.884;2022-07-05T03:21:17;2.97;;;2.87;;
20040;SDS011;10181;48.072;9.884;2022-07-05T03:23:43;3.20;;;3.00;;
20040;SDS011;10181;48.072;9.884;2022-07-05T03:26:09;2.80;;;2.63;;
20040;SDS011;10181;48.072;9.884;2022-07-05T03:28:35;3.13;;;2.90;;
20040;SDS011;10181;48.072;9.884;2022-07-05T03:31:00;3.00;;;2.80;;
20040;SDS011;10181;48.072;9.884;2022-07-05T03:33:26;3.27;;;3.07;;
20040;SDS011;10181;48.072;9.884;2022-07-05T03:35:52;3.37;;;3.07;;
20040;SDS011;10181;48.072;9.884;2022-07-05T03:38:18;3.20;;;3.00;;
20040;SDS011;10181;48.072;9.884;2022-07-05T03:40:43;3.90;;;3.60;;
20040;SDS011;10181;48.072;9.884;2022-07-05T03:43:09;3.77;;;2.43;;
20040;SDS011;10181;48.072;9.884;2022-07-05T03:45:34;2.30;;;2.20;;
20040;SDS011;10181;48.072;9.884;2022-07-05T03:48:00;3.23;;;3.03;;
20040;SDS011;10181;48.072;9.884;2022-07-05T03:50:26;3.10;;;2.90;;
20040;SDS011;10181;48.072;9.884;2022-07-05T03:52:53;3.07;;;2.63;;
20040;SDS011;10181;48.072;9.884;2022-07-05T03:55:19;2.70;;;2.50;;
20040;SDS011;10181;48.072;9.884;2022-07-05T03:57:45;2.10;;;2.00;;
20040;SDS011;10181;48.072;9.884;2022-07-05T04:00:11;2.83;;;2.67;;
20040;SDS011;10181;48.072;9.884;2022-07-05T04:02:37;2.90;;;2.70;;
20040;SDS011;10181;48.072;9.884;2022-07-05T04:05:02;3.17;;;2.87;;
20040;SDS011;10181;48.072;9.884;2022-07-05T04:07:29;2.73;;;2.53;;
20040;SDS011;10181;48.072;9.884;2022-07-05T04:09:54;3.90;;;3.53;;
20040;SDS011;10181;48.072;9.884;2022-07-05T04:12:20;3.40;;;3.20;;
20040;SDS011;10181;48.072;9.884;2022-07-05T04:14:46;4.00;;;3.70;;
20040;SDS011;10181;48.072;9.884;2022-07-05T04:17:11;4.73;;;4.40;;
20040;SDS011;10181;48.072;9.884;2022-07-05T04:19:37;4.13;;;3.83;;
20040;SDS011;10181;48.072;9.884;2022-07-05T04:22:03;4.67;;;4.37;;
20040;SDS011;10181;48.072;9.884;2022-07-05T04:24:29;4.03;;;3.73;;
20040;SDS011;10181;48.072;9.884;2022-07-05T04:26:55;5.37;;;4.97;;
20040;SDS011;10181;48.072;9.884;2022-07-05T04:29:21;4.03;;;3.73;;
20040;SDS011;10181;48.072;9.884;2022-07-05T04:31:46;4.40;;;4.10;;
20040;SDS011;10181;48.072;9.884;2022-07-05T04:34:12;5.30;;;4.90;;
20040;SDS011;10181;48.072;9.884;2022-07-05T04:36:37;5.03;;;4.63;;
20040;SDS011;10181;48.072;9.884;2022-07-05T04:39:05;6.10;;;5.57;;
20040;SDS011;10181;48.072;9.884;2022-07-05T04:41:32;5.80;;;5.30;;
20040;SDS011;10181;48.072;9.884;2022-07-05T04:43:58;7.03;;;6.33;;
20040;SDS011;10181;48.072;9.884;2022-07-05T04:46:23;6.37;;;5.77;;
20040;SDS011;10181;48.072;9.884;2022-07-05T04:48:49;6.87;;;6.27;;
20040;SDS011;10181;48.072;9.884;2022-07-05T04:51:15;6.53;;;5.97;;
20040;SDS011;10181;48.072;9.884;2022-07-05T04:53:41;5.37;;;4.97;;
20040;SDS011;10181;48.072;9.884;2022-07-05T04:56:07;4.90;;;4.60;;
20040;SDS011;10181;48.072;9.884;2022-07-05T04:58:32;5.80;;;5.37;;
20040;SDS011;10181;48.072;9.884;2022-07-05T05:00:58;5.73;;;5.33;;
20040;SDS011;10181;48.072;9.884;2022-07-05T05:03:24;6.03;;;5.53;;
20040;SDS011;10181;48.072;9.884;2022-07-05T05:05:49;6.23;;;5.63;;
20040;SDS011;10181;48.072;9.884;2022-07-05T05:08:15;5.10;;;4.73;;
20040;SDS011;10181;48.072;9.884;2022-07-05T05:10:40;5.80;;;5.40;;
20040;SDS011;10181;48.072;9.884;2022-07-05T05:13:06;5.47;;;5.07;;
20040;SDS011;10181;48.072;9.884;2022-07-05T05:15:32;5.93;;;5.43;;
20040;SDS011;10181;48.072;9.884;2022-07-05T05:17:57;6.87;;;6.27;;
20040;SDS011;10181;48.072;9.884;2022-07-05T05:20:23;6.20;;;5.40;;
20040;SDS011;10181;48.072;9.884;2022-07-05T05:22:48;8.17;;;7.47;;
20040;SDS011;10181;48.072;9.884;2022-07-05T05:25:14;6.90;;;6.33;;
20040;SDS011;10181;48.072;9.884;2022-07-05T05:27:44;6.53;;;6.00;;
20040;SDS011;10181;48.072;9.884;2022-07-05T05:30:11;6.60;;;6.10;;
20040;SDS011;10181;48.072;9.884;2022-07-05T05:32:37;7.60;;;6.90;;
20040;SDS011;10181;48.072;9.884;2022-07-05T05:35:04;7.23;;;6.63;;
20040;SDS011;10181;48.072;9.884;2022-07-05T05:37:30;7.73;;;7.10;;
20040;SDS011;10181;48.072;9.884;2022-07-05T05:39:55;5.83;;;5.43;;
20040;SDS011;10181;48.072;9.884;2022-07-05T05:42:21;7.57;;;6.83;;
20040;SDS011;10181;48.072;9.884;2022-07-05T05:44:47;7.27;;;6.47;;
20040;SDS011;10181;48.072;9.884;2022-07-05T05:47:12;6.63;;;6.03;;
20040;SDS011;10181;48.072;9.884;2022-07-05T05:49:38;7.07;;;6.47;;
20040;SDS011;10181;48.072;9.884;2022-07-05T05:52:04;6.10;;;5.60;;
20040;SDS011;10181;48.072;9.884;2022-07-05T05:54:29;6.10;;;5.60;;
20040;SDS011;10181;48.072;9.884;2022-07-05T05:56:55;6.07;;;5.57;;
20040;SDS011;10181;48.072;9.884;2022-07-05T05:59:20;6.20;;;5.70;;
20040;SDS011;10181;48.072;9.884;2022-07-05T06:01:46;5.93;;;5.43;;
20040;SDS011;10181;48.072;9.884;2022-07-05T06:04:12;5.43;;;5.03;;
20040;SDS011;10181;48.072;9.884;2022-07-05T06:06:37;6.07;;;5.57;;
20040;SDS011;10181;48.072;9.884;2022-07-05T06:09:03;7.10;;;6.50;;
20040;SDS011;10181;48.072;9.884;2022-07-05T06:11:29;5.00;;;4.60;;
20040;SDS011;10181;48.072;9.884;2022-07-05T06:13:55;5.17;;;4.83;;
20040;SDS011;10181;48.072;9.884;2022-07-05T06:16:21;6.50;;;6.00;;
20040;SDS011;10181;48.072;9.884;2022-07-05T06:18:46;5.27;;;4.90;;
20040;SDS011;10181;48.072;9.884;2022-07-05T06:21:12;5.83;;;5.43;;
20040;SDS011;10181;48.072;9.884;2022-07-05T06:23:38;6.50;;;5.90;;
20040;SDS011;10181;48.072;9.884;2022-07-05T06:26:03;6.23;;;5.73;;
20040;SDS011;10181;48.072;9.884;2022-07-05T06:28:29;5.23;;;4.80;;
20040;SDS011;10181;48.072;9.884;2022-07-05T06:30:56;6.47;;;5.87;;
20040;SDS011;10181;48.072;9.884;2022-07-05T06:33:22;6.03;;;5.53;;
20040;SDS011;10181;48.072;9.884;2022-07-05T06:35:48;5.63;;;5.17;;
20040;SDS011;10181;48.072;9.884;2022-07-05T06:38:13;6.00;;;5.50;;
20040;SDS011;10181;48.072;9.884;2022-07-05T06:40:40;4.97;;;4.60;;
20040;SDS011;10181;48.072;9.884;2022-07-05T06:43:07;5.50;;;5.00;;
20040;SDS011;10181;48.072;9.884;2022-07-05T06:45:35;7.63;;;7.03;;
20040;SDS011;10181;48.072;9.884;2022-07-05T06:48:01;5.80;;;5.30;;
20040;SDS011;10181;48.072;9.884;2022-07-05T06:50:29;6.03;;;5.53;;
20040;SDS011;10181;48.072;9.884;2022-07-05T06:52:57;6.53;;;6.03;;
20040;SDS011;10181;48.072;9.884;2022-07-05T06:55:23;6.67;;;6.17;;
20040;SDS011;10181;48.072;9.884;2022-07-05T06:57:55;5.97;;;5.53;;
20040;SDS011;10181;48.072;9.884;2022-07-05T07:00:25;6.07;;;5.57;;
20040;SDS011;10181;48.072;9.884;2022-07-05T07:02:51;6.57;;;5.97;;
20040;SDS011;10181;48.072;9.884;2022-07-05T07:05:17;5.77;;;5.37;;
20040;SDS011;10181;48.072;9.884;2022-07-05T07:07:42;5.63;;;5.27;;
20040;SDS011;10181;48.072;9.884;2022-07-05T07:10:27;5.83;;;5.43;;
20040;SDS011;10181;48.072;9.884;2022-07-05T07:12:52;5.87;;;5.57;;
20040;SDS011;10181;48.072;9.884;2022-07-05T07:15:18;6.47;;;6.07;;
20040;SDS011;10181;48.072;9.884;2022-07-05T07:17:43;6.07;;;5.77;;
20040;SDS011;10181;48.072;9.884;2022-07-05T07:20:09;6.50;;;6.10;;
20040;SDS011;10181;48.072;9.884;2022-07-05T07:22:35;8.03;;;7.43;;
20040;SDS011;10181;48.072;9.884;2022-07-05T07:25:01;7.97;;;7.57;;
20040;SDS011;10181;48.072;9.884;2022-07-05T07:27:30;9.40;;;8.80;;
20040;SDS011;10181;48.072;9.884;2022-07-05T07:29:56;10.53;;;10.03;;
20040;SDS011;10181;48.072;9.884;2022-07-05T07:32:21;10.10;;;9.70;;
20040;SDS011;10181;48.072;9.884;2022-07-05T07:34:47;9.63;;;9.23;;
20040;SDS011;10181;48.072;9.884;2022-07-05T07:37:13;8.10;;;7.80;;
20040;SDS011;10181;48.072;9.884;2022-07-05T07:39:39;7.50;;;7.20;;
20040;SDS011;10181;48.072;9.884;2022-07-05T07:42:06;6.27;;;5.97;;
20040;SDS011;10181;48.072;9.884;2022-07-05T07:44:32;6.13;;;5.83;;
20040;SDS011;10181;48.072;9.884;2022-07-05T07:46:58;5.23;;;5.03;;
20040;SDS011;10181;48.072;9.884;2022-07-05T07:49:23;13.37;;;12.87;;
20040;SDS011;10181;48.072;9.884;2022-07-05T07:51:50;16.00;;;15.40;;
20040;SDS011;10181;48.072;9.884;2022-07-05T07:54:16;7.67;;;7.47;;
20040;SDS011;10181;48.072;9.884;2022-07-05T07:56:42;8.83;;;8.63;;
20040;SDS011;10181;48.072;9.884;2022-07-05T07:59:08;3.67;;;3.57;;
20040;SDS011;10181;48.072;9.884;2022-07-05T08:01:34;7.23;;;6.97;;
20040;SDS011;10181;48.072;9.884;2022-07-05T08:04:00;18.30;;;17.70;;
20040;SDS011;10181;48.072;9.884;2022-07-05T08:06:25;17.47;;;16.93;;
20040;SDS011;10181;48.072;9.884;2022-07-05T08:08:51;14.47;;;14.00;;
20040;SDS011;10181;48.072;9.884;2022-07-05T08:11:16;24.90;;;23.93;;
20040;SDS011;10181;48.072;9.884;2022-07-05T08:13:42;16.17;;;15.57;;
20040;SDS011;10181;48.072;9.884;2022-07-05T08:16:08;10.33;;;9.93;;
20040;SDS011;10181;48.072;9.884;2022-07-05T08:18:35;11.83;;;11.47;;
20040;SDS011;10181;48.072;9.884;2022-07-05T08:21:19;9.00;;;8.70;;
20040;SDS011;10181;48.072;9.884;2022-07-05T08:24:00;11.63;;;11.23;;
20040;SDS011;10181;48.072;9.884;2022-07-05T08:26:28;10.00;;;9.70;;
20040;SDS011;10181;48.072;9.884;2022-07-05T08:28:55;7.50;;;7.10;;
20040;SDS011;10181;48.072;9.884;2022-07-05T08:31:23;7.43;;;7.07;;
20040;SDS011;10181;48.072;9.884;2022-07-05T08:33:50;7.75;;;7.45;;
20040;SDS011;10181;48.072;9.884;2022-07-05T08:36:15;8.33;;;8.10;;
20040;SDS011;10181;48.072;9.884;2022-07-05T08:38:41;5.80;;;5.60;;
20040;SDS011;10181;48.072;9.884;2022-07-05T08:41:07;4.05;;;3.95;;
20040;SDS011;10181;48.072;9.884;2022-07-05T08:43:35;2.20;;;2.20;;
20040;SDS011;10181;48.072;9.884;2022-07-05T08:46:04;2.33;;;2.22;;
20040;SDS011;10181;48.072;9.884;2022-07-05T08:48:33;2.70;;;2.60;;
20040;SDS011;10181;48.072;9.884;2022-07-05T08:51:10;3.95;;;3.85;;
20040;SDS011;10181;48.072;9.884;2022-07-05T08:53:37;2.38;;;2.33;;
20040;SDS011;10181;48.072;9.884;2022-07-05T08:56:04;1.80;;;1.70;;
20040;SDS011;10181;48.072;9.884;2022-07-05T08:58:32;3.25;;;3.15;;
20040;SDS011;10181;48.072;9.884;2022-07-05T09:00:58;3.10;;;3.00;;
20040;SDS011;10181;48.072;9.884;2022-07-05T09:03:25;1.92;;;1.92;;
20040;SDS011;10181;48.072;9.884;2022-07-05T09:06:04;2.42;;;1.50;;
20040;SDS011;10181;48.072;9.884;2022-07-05T09:08:35;1.67;;;1.67;;
20040;SDS011;10181;48.072;9.884;2022-07-05T09:11:14;1.92;;;1.83;;
20040;SDS011;10181;48.072;9.884;2022-07-05T09:13:42;1.73;;;1.65;;
20040;SDS011;10181;48.072;9.884;2022-07-05T09:16:13;1.80;;;1.70;;
20040;SDS011;10181;48.072;9.884;2022-07-05T09:18:46;1.92;;;1.83;;
20040;SDS011;10181;48.072;9.884;2022-07-05T09:21:20;2.10;;;2.00;;
20040;SDS011;10181;48.072;9.884;2022-07-05T09:23:57;2.25;;;2.15;;
20040;SDS011;10181;48.072;9.884;2022-07-05T09:26:43;5.53;;;5.43;;
20040;SDS011;10181;48.072;9.884;2022-07-05T09:29:10;1.92;;;1.92;;
20040;SDS011;10181;48.072;9.884;2022-07-05T09:31:40;2.17;;;2.08;;
20040;SDS011;10181;48.072;9.884;2022-07-05T09:36:47;2.05;;;1.95;;
20040;SDS011;10181;48.072;9.884;2022-07-05T09:39:12;8.25;;;8.05;;
20040;SDS011;10181;48.072;9.884;2022-07-05T09:41:38;4.57;;;4.45;;
20040;SDS011;10181;48.072;9.884;2022-07-05T09:44:04;7.70;;;7.50;;
20040;SDS011;10181;48.072;9.884;2022-07-05T09:46:30;3.33;;;3.22;;
20040;SDS011;10181;48.072;9.884;2022-07-05T09:48:56;7.80;;;7.50;;
20040;SDS011;10181;48.072;9.884;2022-07-05T09:51:22;3.22;;;3.13;;
20040;SDS011;10181;48.072;9.884;2022-07-05T09:53:52;3.85;;;3.75;;
20040;SDS011;10181;48.072;9.884;2022-07-05T09:56:19;6.40;;;6.20;;
20040;SDS011;10181;48.072;9.884;2022-07-05T09:58:46;8.90;;;8.70;;
20040;SDS011;10181;48.072;9.884;2022-07-05T10:04:02;5.53;;;5.22;;
20040;SDS011;10181;48.072;9.884;2022-07-05T10:06:28;7.65;;;7.45;;
20040;SDS011;10181;48.072;9.884;2022-07-05T10:08:56;4.45;;;4.25;;
20040;SDS011;10181;48.072;9.884;2022-07-05T10:11:22;11.30;;;10.95;;
20040;SDS011;10181;48.072;9.884;2022-07-05T10:13:55;2.38;;;2.38;;
20040;SDS011;10181;48.072;9.884;2022-07-05T10:16:21;3.50;;;3.40;;
20040;SDS011;10181;48.072;9.884;2022-07-05T10:18:50;2.72;;;2.63;;
20040;SDS011;10181;48.072;9.884;2022-07-05T10:21:17;2.70;;;2.60;;
20040;SDS011;10181;48.072;9.884;2022-07-05T10:23:48;1.77;;;1.67;;
20040;SDS011;10181;48.072;9.884;2022-07-05T10:26:18;5.80;;;5.60;;
20040;SDS011;10181;48.072;9.884;2022-07-05T10:28:45;1.90;;;1.63;;
20040;SDS011;10181;48.072;9.884;2022-07-05T10:31:14;1.65;;;1.55;;
20040;SDS011;10181;48.072;9.884;2022-07-05T10:33:40;5.30;;;5.20;;
20040;SDS011;10181;48.072;9.884;2022-07-05T10:36:07;1.20;;;1.20;;
20040;SDS011;10181;48.072;9.884;2022-07-05T10:38:39;2.55;;;2.42;;
20040;SDS011;10181;48.072;9.884;2022-07-05T10:41:08;1.38;;;1.38;;
20040;SDS011;10181;48.072;9.884;2022-07-05T10:43:36;1.30;;;1.30;;
20040;SDS011;10181;48.072;9.884;2022-07-05T10:46:01;1.20;;;1.20;;
20040;SDS011;10181;48.072;9.884;2022-07-05T10:48:32;2.03;;;2.03;;
20040;SDS011;10181;48.072;9.884;2022-07-05T10:50:58;1.30;;;1.15;;
20040;SDS011;10181;48.072;9.884;2022-07-05T10:53:29;1.17;;;1.17;;
20040;SDS011;10181;48.072;9.884;2022-07-05T10:56:17;0.95;;;0.95;;
20040;SDS011;10181;48.072;9.884;2022-07-05T10:58:46;1.30;;;1.30;;
20040;SDS011;10181;48.072;9.884;2022-07-05T11:01:34;1.35;;;1.30;;
20040;SDS011;10181;48.072;9.884;2022-07-05T11:06:30;1.10;;;1.10;;
20040;SDS011;10181;48.072;9.884;2022-07-05T11:11:37;2.35;;;2.25;;
20040;SDS011;10181;48.072;9.884;2022-07-05T11:16:47;1.23;;;1.23;;
20040;SDS011;10181;48.072;9.884;2022-07-05T11:19:22;1.05;;;1.00;;
20040;SDS011;10181;48.072;9.884;2022-07-05T11:22:07;1.05;;;1.05;;
20040;SDS011;10181;48.072;9.884;2022-07-05T11:24:34;1.35;;;1.25;;
20040;SDS011;10181;48.072;9.884;2022-07-05T11:27:03;1.20;;;1.20;;
20040;SDS011;10181;48.072;9.884;2022-07-05T11:32:12;1.17;;;1.17;;
20040;SDS011;10181;48.072;9.884;2022-07-05T11:34:40;1.10;;;1.10;;
20040;SDS011;10181;48.072;9.884;2022-07-05T11:39:46;1.30;;;1.20;;
20040;SDS011;10181;48.072;9.884;2022-07-05T11:42:32;1.13;;;1.13;;
20040;SDS011;10181;48.072;9.884;2022-07-05T11:44:59;1.27;;;1.13;;
20040;SDS011;10181;48.072;9.884;2022-07-05T11:47:26;1.10;;;1.10;;
20040;SDS011;10181;48.072;9.884;2022-07-05T11:49:52;0.90;;;0.90;;
20040;SDS011;10181;48.072;9.884;2022-07-05T11:52:29;1.08;;;1.08;;
20040;SDS011;10181;48.072;9.884;2022-07-05T11:54:57;1.27;;;1.17;;
20040;SDS011;10181;48.072;9.884;2022-07-05T11:57:24;1.00;;;1.00;;
20040;SDS011;10181;48.072;9.884;2022-07-05T11:59:50;1.20;;;1.20;;
20040;SDS011;10181;48.072;9.884;2022-07-05T12:02:16;1.05;;;1.05;;
20040;SDS011;10181;48.072;9.884;2022-07-05T12:04:49;1.20;;;1.20;;
20040;SDS011;10181;48.072;9.884;2022-07-05T12:09:58;1.00;;;1.00;;
20040;SDS011;10181;48.072;9.884;2022-07-05T12:12:47;1.30;;;1.30;;
20040;SDS011;10181;48.072;9.884;2022-07-05T12:15:17;1.30;;;1.20;;
20040;SDS011;10181;48.072;9.884;2022-07-05T12:17:45;1.20;;;1.20;;
20040;SDS011;10181;48.072;9.884;2022-07-05T12:20:14;1.13;;;1.13;;
20040;SDS011;10181;48.072;9.884;2022-07-05T12:22:45;1.70;;;0.90;;
20040;SDS011;10181;48.072;9.884;2022-07-05T12:25:12;1.30;;;1.30;;
20040;SDS011;10181;48.072;9.884;2022-07-05T12:27:41;0.90;;;0.90;;
20040;SDS011;10181;48.072;9.884;2022-07-05T12:30:08;1.20;;;1.20;;
20040;SDS011;10181;48.072;9.884;2022-07-05T12:40:57;1.20;;;1.20;;
20040;SDS011;10181;48.072;9.884;2022-07-05T12:43:24;3.03;;;1.10;;
20040;SDS011;10181;48.072;9.884;2022-07-05T12:46:03;1.13;;;1.13;;
20040;SDS011;10181;48.072;9.884;2022-07-05T12:48:39;0.90;;;0.90;;
20040;SDS011;10181;48.072;9.884;2022-07-05T12:51:06;1.20;;;1.20;;
20040;SDS011;10181;48.072;9.884;2022-07-05T12:53:32;1.10;;;1.10;;
20040;SDS011;10181;48.072;9.884;2022-07-05T12:56:22;1.00;;;1.00;;
20040;SDS011;10181;48.072;9.884;2022-07-05T12:59:07;0.98;;;0.98;;
20040;SDS011;10181;48.072;9.884;2022-07-05T13:01:36;2.25;;;1.10;;
20040;SDS011;10181;48.072;9.884;2022-07-05T13:04:11;1.23;;;1.23;;
20040;SDS011;10181;48.072;9.884;2022-07-05T13:06:52;1.10;;;1.00;;
20040;SDS011;10181;48.072;9.884;2022-07-05T13:14:36;1.10;;;1.10;;
20040;SDS011;10181;48.072;9.884;2022-07-05T13:17:04;1.00;;;1.00;;
20040;SDS011;10181;48.072;9.884;2022-07-05T13:19:30;1.30;;;1.30;;
20040;SDS011;10181;48.072;9.884;2022-07-05T13:21:56;1.30;;;1.20;;
20040;SDS011;10181;48.072;9.884;2022-07-05T13:24:21;1.00;;;1.00;;
20040;SDS011;10181;48.072;9.884;2022-07-05T13:26:47;1.20;;;1.20;;
20040;SDS011;10181;48.072;9.884;2022-07-05T13:29:13;1.25;;;1.25;;
20040;SDS011;10181;48.072;9.884;2022-07-05T13:31:38;1.30;;;1.30;;
20040;SDS011;10181;48.072;9.884;2022-07-05T13:34:04;0.90;;;0.90;;
20040;SDS011;10181;48.072;9.884;2022-07-05T13:36:30;1.20;;;1.20;;
20040;SDS011;10181;48.072;9.884;2022-07-05T13:38:55;1.15;;;1.15;;
20040;SDS011;10181;48.072;9.884;2022-07-05T13:41:21;1.55;;;1.45;;
20040;SDS011;10181;48.072;9.884;2022-07-05T13:43:47;1.02;;;1.02;;
20040;SDS011;10181;48.072;9.884;2022-07-05T13:46:12;1.33;;;1.33;;
20040;SDS011;10181;48.072;9.884;2022-07-05T13:48:38;1.30;;;1.30;;
20040;SDS011;10181;48.072;9.884;2022-07-05T13:51:05;1.42;;;1.42;;
20040;SDS011;10181;48.072;9.884;2022-07-05T13:53:31;1.20;;;1.20;;
20040;SDS011;10181;48.072;9.884;2022-07-05T13:55:57;1.67;;;1.60;;
20040;SDS011;10181;48.072;9.884;2022-07-05T13:58:22;1.15;;;1.15;;
20040;SDS011;10181;48.072;9.884;2022-07-05T14:00:48;1.10;;;1.10;;
20040;SDS011;10181;48.072;9.884;2022-07-05T14:03:14;1.10;;;1.10;;
20040;SDS011;10181;48.072;9.884;2022-07-05T14:05:41;1.42;;;1.40;;
20040;SDS011;10181;48.072;9.884;2022-07-05T14:08:09;1.30;;;1.30;;
20040;SDS011;10181;48.072;9.884;2022-07-05T14:10:36;1.17;;;1.17;;
20040;SDS011;10181;48.072;9.884;2022-07-05T14:13:01;1.00;;;1.00;;
20040;SDS011;10181;48.072;9.884;2022-07-05T14:15:27;1.10;;;1.10;;
20040;SDS011;10181;48.072;9.884;2022-07-05T14:17:53;1.15;;;1.15;;
20040;SDS011;10181;48.072;9.884;2022-07-05T14:20:19;1.50;;;1.50;;
20040;SDS011;10181;48.072;9.884;2022-07-05T14:22:44;1.17;;;1.17;;
20040;SDS011;10181;48.072;9.884;2022-07-05T14:25:10;1.23;;;1.20;;
20040;SDS011;10181;48.072;9.884;2022-07-05T14:27:35;1.10;;;1.10;;
20040;SDS011;10181;48.072;9.884;2022-07-05T14:32:41;1.40;;;1.40;;
20040;SDS011;10181;48.072;9.884;2022-07-05T14:35:07;1.20;;;1.20;;
20040;SDS011;10181;48.072;9.884;2022-07-05T14:37:32;1.00;;;1.00;;
20040;SDS011;10181;48.072;9.884;2022-07-05T14:39:58;1.85;;;1.00;;
20040;SDS011;10181;48.072;9.884;2022-07-05T14:42:24;1.20;;;1.20;;
20040;SDS011;10181;48.072;9.884;2022-07-05T14:44:50;1.00;;;0.93;;
20040;SDS011;10181;48.072;9.884;2022-07-05T14:47:15;1.20;;;1.20;;
20040;SDS011;10181;48.072;9.884;2022-07-05T14:49:41;1.52;;;0.98;;
20040;SDS011;10181;48.072;9.884;2022-07-05T14:52:07;1.13;;;1.10;;
20040;SDS011;10181;48.072;9.884;2022-07-05T14:54:32;1.00;;;1.00;;
20040;SDS011;10181;48.072;9.884;2022-07-05T14:56:58;1.50;;;1.15;;
20040;SDS011;10181;48.072;9.884;2022-07-05T14:59:23;1.20;;;1.20;;
20040;SDS011;10181;48.072;9.884;2022-07-05T15:01:49;1.05;;;1.05;;
20040;SDS011;10181;48.072;9.884;2022-07-05T15:04:15;1.38;;;1.38;;
20040;SDS011;10181;48.072;9.884;2022-07-05T15:06:40;1.00;;;1.00;;
20040;SDS011;10181;48.072;9.884;2022-07-05T15:09:06;0.88;;;0.88;;
20040;SDS011;10181;48.072;9.884;2022-07-05T15:11:32;0.90;;;0.90;;
20040;SDS011;10181;48.072;9.884;2022-07-05T15:13:58;1.13;;;1.00;;
20040;SDS011;10181;48.072;9.884;2022-07-05T15:16:27;1.50;;;1.35;;
20040;SDS011;10181;48.072;9.884;2022-07-05T15:18:52;1.00;;;1.00;;
20040;SDS011;10181;48.072;9.884;2022-07-05T15:21:18;2.08;;;1.08;;
20040;SDS011;10181;48.072;9.884;2022-07-05T15:23:44;1.10;;;1.10;;
20040;SDS011;10181;48.072;9.884;2022-07-05T15:26:10;1.30;;;1.30;;
20040;SDS011;10181;48.072;9.884;2022-07-05T15:28:35;1.20;;;1.20;;
20040;SDS011;10181;48.072;9.884;2022-07-05T15:31:01;1.23;;;1.13;;